Time;durP1;ratioP1;P1;durP2;ratioP2;P2;SDS_P1;SDS_P2;PMS_P1;PMS_P2;Temp;Humidity;BMP_temperature;BMP_pressure;BME280_temperature;BME280_humidity;BME280_pressure;Samples;Min_cycle;Max_cycle;Signal;HPM_P1;HPM_P2
2022/03/22 00:02:11;;;;;;;68.20;28.50;;;;;;;1.81;49.24;100474.66;106085;1278;138054;-73
2022/03/22 00:04:38;;;;;;;62.40;27.00;;;;;;;1.80;49.23;100474.25;106069;1279;26349;-73
2022/03/22 00:07:05;;;;;;;58.10;25.40;;;;;;;1.78;49.15;100473.00;106098;1277;22580;-73
2022/03/22 00:09:33;;;;;;;56.60;25.10;;;;;;;1.77;49.08;100468.66;105820;1278;137378;-73
2022/03/22 00:11:59;;;;;;;54.30;23.90;;;;;;;1.76;48.82;100473.93;106012;1278;22598;-73
2022/03/22 00:14:26;;;;;;;48.10;23.40;;;;;;;1.74;48.81;100472.27;105947;1277;137945;-73
2022/03/22 00:16:53;;;;;;;46.60;22.70;;;;;;;1.74;49.06;100467.14;105821;1278;23947;-73
2022/03/22 00:19:20;;;;;;;49.20;21.90;;;;;;;1.73;49.09;100468.25;106004;1277;24260;-73
2022/03/22 00:21:47;;;;;;;44.00;21.60;;;;;;;1.72;49.22;100467.44;105744;1278;137585;-73
2022/03/22 00:24:14;;;;;;;55.20;24.80;;;;;;;1.71;49.28;100466.99;105834;1277;22560;-73
2022/03/22 00:26:40;;;;;;;69.10;31.50;;;;;;;1.70;49.16;100468.16;105666;1278;137517;-73
2022/03/22 00:29:08;;;;;;;76.30;31.20;;;;;;;1.68;49.39;100474.40;105733;1278;22588;-75
2022/03/22 00:31:34;;;;;;;105.00;40.00;;;;;;;1.66;49.57;100469.02;105790;1279;22732;-73
2022/03/22 00:34:00;;;;;;;101.80;40.80;;;;;;;1.65;49.48;100471.65;105878;1277;137551;-73
2022/03/22 00:36:27;;;;;;;81.10;36.50;;;;;;;1.61;49.61;100471.70;106069;1277;22554;-73
2022/03/22 00:38:53;;;;;;;59.60;26.50;;;;;;;1.61;49.56;100469.00;105869;1277;138955;-75
2022/03/22 00:41:20;;;;;;;53.70;25.60;;;;;;;1.59;49.59;100470.55;105924;1277;22565;-73
2022/03/22 00:43:46;;;;;;;49.10;25.90;;;;;;;1.58;49.57;100465.06;105780;1280;22569;-74
2022/03/22 00:46:13;;;;;;;55.00;25.50;;;;;;;1.58;49.77;100468.20;106010;1277;138031;-74
2022/03/22 00:48:40;;;;;;;58.80;26.20;;;;;;;1.55;49.80;100464.64;106193;1277;22547;-74
2022/03/22 00:51:09;;;;;;;53.70;25.30;;;;;;;1.54;49.77;100462.08;105983;1277;137474;-73
2022/03/22 00:53:36;;;;;;;53.10;26.00;;;;;;;1.52;49.83;100465.08;106130;1277;22554;-74
2022/03/22 00:56:02;;;;;;;54.10;27.80;;;;;;;1.51;49.80;100464.48;105925;1277;137583;-73
2022/03/22 00:58:29;;;;;;;59.60;26.90;;;;;;;1.48;50.17;100464.78;106084;1277;23334;-73
2022/03/22 01:00:56;;;;;;;57.70;26.90;;;;;;;1.44;50.25;100467.40;106145;1277;23352;-74
2022/03/22 01:03:23;;;;;;;59.30;27.80;;;;;;;1.40;50.49;100469.98;106040;1277;137598;-73
2022/03/22 01:05:52;;;;;;;55.40;26.50;;;;;;;1.34;50.90;100469.17;105822;1279;24236;-73
2022/03/22 01:08:19;;;;;;;57.50;27.10;;;;;;;1.29;50.85;100471.23;106002;1277;137701;-73
2022/03/22 01:10:52;;;;;;;52.80;24.70;;;;;;;1.23;51.14;100472.13;106008;1278;22589;-73
2022/03/22 01:13:33;;;;;;;52.40;24.60;;;;;;;1.14;51.16;100473.80;106065;1277;22553;-73
2022/03/22 01:16:00;;;;;;;50.00;23.40;;;;;;;1.06;51.25;100470.36;106036;1277;137372;-73
2022/03/22 01:18:27;;;;;;;50.80;25.00;;;;;;;1.00;51.46;100471.09;105876;1277;23326;-73
2022/03/22 01:20:54;;;;;;;51.80;23.90;;;;;;;0.95;51.39;100468.35;105556;1280;137944;-73
2022/03/22 01:23:22;;;;;;;48.90;21.40;;;;;;;0.89;51.37;100468.66;106148;1277;22547;-73
2022/03/22 01:25:49;;;;;;;49.70;23.40;;;;;;;0.84;51.89;100466.60;106340;1276;22612;-73
2022/03/22 01:28:16;;;;;;;51.20;24.60;;;;;;;0.79;51.82;100466.85;105969;1278;137395;-74
2022/03/22 01:30:44;;;;;;;55.00;24.90;;;;;;;0.75;51.77;100468.27;106020;1278;25491;-74
2022/03/22 01:33:15;;;;;;;55.20;24.80;;;;;;;0.71;52.11;100469.17;105976;1277;137299;-75
2022/03/22 01:35:42;;;;;;;53.10;25.20;;;;;;;0.66;52.19;100465.84;106025;1277;26587;-75
2022/03/22 01:38:08;;;;;;;51.10;24.80;;;;;;;0.61;52.52;100467.33;105897;1277;137636;-75
2022/03/22 01:40:36;;;;;;;52.20;23.20;;;;;;;0.55;52.42;100467.81;106099;1275;24324;-75
2022/03/22 01:43:17;;;;;;;46.20;20.80;;;;;;;0.52;52.28;100472.13;105875;1277;22613;-75
2022/03/22 01:45:48;;;;;;;47.10;21.90;;;;;;;0.52;52.07;100473.77;105901;1277;137301;-75
2022/03/22 01:48:14;;;;;;;52.60;23.70;;;;;;;0.52;52.01;100474.33;106067;1278;22553;-73
2022/03/22 01:50:42;;;;;;;49.90;23.90;;;;;;;0.51;51.93;100473.17;105855;1277;137703;-74
2022/03/22 01:53:10;;;;;;;52.50;25.00;;;;;;;0.49;52.27;100471.71;105983;1277;22667;-74
2022/03/22 01:55:38;;;;;;;53.90;24.00;;;;;;;0.47;52.16;100473.67;105974;1277;24521;-75
2022/03/22 01:58:05;;;;;;;52.60;23.10;;;;;;;0.45;51.89;100469.93;105801;1277;137570;-74
2022/03/22 02:00:32;;;;;;;50.70;24.90;;;;;;;0.44;51.90;100469.29;105955;1277;25256;-73
2022/03/22 02:08:17;;;;;;;50.10;25.20;;;;;;;0.34;52.05;100455.42;105983;1278;137929;-73
2022/03/22 02:10:45;;;;;;;51.00;24.70;;;;;;;0.32;52.38;100456.35;105994;1279;24231;-73
2022/03/22 02:13:13;;;;;;;58.60;25.30;;;;;;;0.29;52.24;100456.58;105915;1279;25259;-73
2022/03/22 02:15:39;;;;;;;48.90;22.90;;;;;;;0.26;52.54;100452.53;106071;1277;137318;-73
2022/03/22 02:18:07;;;;;;;49.20;22.60;;;;;;;0.24;52.66;100449.50;106249;1277;25376;-74
2022/03/22 02:20:36;;;;;;;51.20;22.80;;;;;;;0.23;52.70;100451.58;106172;1277;137775;-74
2022/03/22 02:23:19;;;;;;;51.10;25.00;;;;;;;0.21;52.69;100448.55;106202;1277;22541;-74
2022/03/22 02:25:49;;;;;;;48.40;22.20;;;;;;;0.19;52.82;100447.81;106113;1277;22541;-74
2022/03/22 02:28:20;;;;;;;53.40;23.80;;;;;;;0.16;52.80;100446.95;105884;1277;137448;-73
2022/03/22 02:30:49;;;;;;;51.80;23.50;;;;;;;0.13;53.04;100450.74;106221;1277;22704;-74
2022/03/22 02:33:16;;;;;;;52.10;22.10;;;;;;;0.11;53.15;100450.57;105923;1277;137550;-74
2022/03/22 02:35:43;;;;;;;46.10;22.20;;;;;;;0.09;53.25;100455.80;106011;1277;22551;-74
2022/03/22 02:38:10;;;;;;;48.40;23.30;;;;;;;0.05;53.84;100450.19;105677;1277;138074;-74
2022/03/22 02:40:37;;;;;;;55.50;25.30;;;;;;;-0.01;53.91;100454.95;105838;1277;24230;-74
2022/03/22 02:43:04;;;;;;;52.40;23.40;;;;;;;-0.07;54.40;100458.17;105874;1277;22551;-74
2022/03/22 02:45:31;;;;;;;51.30;22.90;;;;;;;-0.12;54.25;100454.64;105992;1277;137530;-74
2022/03/22 02:47:58;;;;;;;53.20;24.10;;;;;;;-0.15;54.19;100456.86;106044;1277;22795;-74
2022/03/22 02:50:24;;;;;;;54.90;23.10;;;;;;;-0.17;54.18;100457.26;105710;1280;137694;-74
2022/03/22 02:52:51;;;;;;;45.90;21.80;;;;;;;-0.21;54.69;100459.33;105957;1280;24277;-74
2022/03/22 02:55:18;;;;;;;47.40;22.20;;;;;;;-0.26;54.93;100460.75;106054;1277;22607;-76
2022/03/22 02:57:45;;;;;;;50.50;23.70;;;;;;;-0.32;55.48;100463.94;106114;1278;137829;-75
2022/03/22 03:00:13;;;;;;;51.40;25.10;;;;;;;-0.37;55.59;100464.38;105967;1280;22557;-75
2022/03/22 03:02:58;;;;;;;56.80;24.40;;;;;;;-0.42;55.56;100468.52;105893;1280;137799;-75
2022/03/22 03:05:25;;;;;;;51.60;23.00;;;;;;;-0.46;55.74;100471.15;105982;1280;22693;-74
2022/03/22 03:07:52;;;;;;;44.00;22.50;;;;;;;-0.49;56.02;100471.39;105895;1280;23073;-74
2022/03/22 03:10:19;;;;;;;49.60;22.20;;;;;;;-0.51;55.90;100471.77;105895;1280;137463;-74
2022/03/22 03:12:46;;;;;;;53.20;22.80;;;;;;;-0.51;56.04;100474.23;106107;1277;24131;-74
2022/03/22 03:15:13;;;;;;;44.90;22.10;;;;;;;-0.52;56.43;100475.71;105939;1277;137939;-74
2022/03/22 03:17:40;;;;;;;45.80;22.70;;;;;;;-0.53;56.33;100478.73;106083;1280;23929;-74
2022/03/22 03:20:08;;;;;;;50.60;23.00;;;;;;;-0.55;56.56;100479.38;106054;1278;137903;-74
2022/03/22 03:22:35;;;;;;;54.60;24.70;;;;;;;-0.57;56.55;100479.89;106259;1280;24206;-76
2022/03/22 03:25:03;;;;;;;48.60;22.40;;;;;;;-0.59;56.70;100478.25;106145;1280;24219;-74
2022/03/22 03:27:29;;;;;;;45.60;21.00;;;;;;;-0.59;56.76;100477.02;105984;1278;138151;-73
2022/03/22 03:29:57;;;;;;;50.60;22.00;;;;;;;-0.58;57.04;100479.98;106203;1280;22578;-74
2022/03/22 03:32:24;;;;;;;50.00;23.70;;;;;;;-0.60;56.94;100478.31;105934;1277;137777;-73
2022/03/22 03:34:51;;;;;;;52.80;25.10;;;;;;;-0.62;56.98;100481.14;105861;1280;22566;-74
2022/03/22 03:37:18;;;;;;;48.50;21.70;;;;;;;-0.64;56.94;100478.63;106423;1277;23276;-74
2022/03/22 03:39:45;;;;;;;49.70;22.90;;;;;;;-0.65;56.85;100479.66;105735;1280;137534;-73
2022/03/22 03:42:11;;;;;;;42.70;19.30;;;;;;;-0.66;57.06;100478.11;106021;1280;22549;-73
2022/03/22 03:47:24;;;;;;;46.80;20.80;;;;;;;-0.65;57.08;100477.30;105974;1280;22579;-73
2022/03/22 03:49:54;;;;;;;51.20;22.20;;;;;;;-0.65;57.21;100475.56;106311;1277;22708;-73
2022/03/22 03:52:23;;;;;;;44.70;20.50;;;;;;;-0.67;57.19;100477.67;105833;1280;137375;-73
2022/03/22 03:55:06;;;;;;;45.40;20.60;;;;;;;-0.67;57.30;100481.97;105791;1280;24292;-75
2022/03/22 03:57:35;;;;;;;49.60;21.50;;;;;;;-0.67;57.32;100481.92;106025;1279;137661;-73
2022/03/22 04:00:04;;;;;;;43.50;20.20;;;;;;;-0.67;57.17;100482.09;105894;1279;22543;-73
2022/03/22 04:02:40;;;;;;;45.80;20.40;;;;;;;-0.66;57.13;100478.11;105998;1279;137642;-73
2022/03/22 04:05:09;;;;;;;46.30;20.60;;;;;;;-0.65;57.27;100481.23;105856;1279;23970;-73
2022/03/22 04:07:36;;;;;;;45.70;19.90;;;;;;;-0.64;57.49;100480.29;106138;1277;25255;-73
2022/03/22 04:10:03;;;;;;;43.90;19.10;;;;;;;-0.62;57.48;100483.87;105939;1277;137982;-73
2022/03/22 04:12:31;;;;;;;41.50;20.10;;;;;;;-0.63;57.45;100483.05;106045;1277;24304;-73
2022/03/22 04:14:57;;;;;;;51.80;22.60;;;;;;;-0.62;57.26;100486.02;105993;1277;137613;-72
2022/03/22 04:17:24;;;;;;;49.60;22.60;;;;;;;-0.64;57.29;100489.53;106029;1280;22696;-72
2022/03/22 04:19:51;;;;;;;44.50;21.70;;;;;;;-0.66;57.37;100489.15;105966;1277;25345;-72
2022/03/22 04:22:18;;;;;;;53.40;21.50;;;;;;;-0.69;57.51;100491.52;105900;1277;137483;-72
2022/03/22 04:24:45;;;;;;;45.30;20.90;;;;;;;-0.71;57.45;100492.73;105864;1277;24293;-72
2022/03/22 04:32:47;;;;;;;48.50;21.70;;;;;;;-0.78;57.78;100494.56;105563;1279;137643;-72
2022/03/22 04:35:19;;;;;;;52.90;23.00;;;;;;;-0.82;58.14;100499.00;105677;1279;22547;-73
2022/03/22 04:37:52;;;;;;;49.70;21.60;;;;;;;-0.86;58.34;100498.77;106132;1278;22601;-73
2022/03/22 04:40:35;;;;;;;47.30;21.50;;;;;;;-0.90;57.96;100499.11;105862;1280;137395;-72
2022/03/22 04:43:01;;;;;;;52.80;23.00;;;;;;;-0.93;58.41;100501.99;105992;1280;22703;-72
2022/03/22 04:45:28;;;;;;;53.10;23.60;;;;;;;-0.99;58.91;100503.14;105591;1280;138035;-72
2022/03/22 04:47:55;;;;;;;50.30;23.30;;;;;;;-1.02;58.73;100507.84;106081;1277;22568;-72
2022/03/22 04:50:21;;;;;;;48.30;22.00;;;;;;;-1.06;59.01;100506.18;105895;1277;137817;-73
2022/03/22 04:58:18;;;;;;;48.10;22.80;;;;;;;-1.13;59.55;100515.70;105806;1277;137790;-73
2022/03/22 05:00:46;;;;;;;58.10;25.10;;;;;;;-1.16;59.45;100517.81;106071;1280;22622;-73
2022/03/22 05:03:12;;;;;;;43.30;20.50;;;;;;;-1.17;59.59;100515.45;106150;1277;137894;-73
2022/03/22 05:08:24;;;;;;;58.60;23.10;;;;;;;-1.18;59.79;100522.32;105876;1277;137970;-73
2022/03/22 05:11:05;;;;;;;48.90;22.70;;;;;;;-1.19;59.73;100510.62;105854;1278;29218;-73
2022/03/22 05:13:32;;;;;;;51.70;22.80;;;;;;;-1.17;60.05;100513.86;106019;1278;22551;-73
2022/03/22 05:15:58;;;;;;;45.90;21.40;;;;;;;-1.14;59.99;100510.60;105965;1278;137640;-73
2022/03/22 05:18:26;;;;;;;43.60;18.70;;;;;;;-1.10;59.93;100518.30;105989;1278;22670;-74
2022/03/22 05:20:53;;;;;;;48.40;21.80;;;;;;;-1.05;60.09;100518.48;105950;1277;138034;-74
2022/03/22 05:23:20;;;;;;;45.40;20.30;;;;;;;-1.02;60.11;100520.70;106096;1277;22578;-73
2022/03/22 05:25:47;;;;;;;48.40;22.40;;;;;;;-0.99;59.98;100521.90;105969;1277;22567;-73
2022/03/22 05:28:13;;;;;;;46.20;20.90;;;;;;;-0.96;59.62;100525.74;105918;1277;137913;-73
2022/03/22 05:30:40;;;;;;;46.90;20.70;;;;;;;-0.93;59.85;100526.59;105948;1277;24424;-74
2022/03/22 05:33:07;;;;;;;47.20;21.10;;;;;;;-0.88;60.02;100526.58;105920;1278;138386;-74
2022/03/22 05:35:48;;;;;;;54.60;23.10;;;;;;;-0.84;59.98;100521.46;106124;1277;22599;-72
2022/03/22 05:38:15;;;;;;;64.20;25.70;;;;;;;-0.80;60.06;100525.94;105906;1277;137521;-73
2022/03/22 05:40:42;;;;;;;56.10;24.20;;;;;;;-0.76;60.06;100521.70;106007;1277;24258;-73
2022/03/22 05:43:09;;;;;;;53.90;23.40;;;;;;;-0.72;60.47;100523.70;105978;1277;24463;-73
2022/03/22 05:45:36;;;;;;;60.30;22.80;;;;;;;-0.67;60.15;100526.73;105735;1280;137564;-73
2022/03/22 05:48:07;;;;;;;53.70;23.10;;;;;;;-0.63;60.12;100524.06;106076;1277;22557;-73
2022/03/22 05:50:34;;;;;;;48.80;22.40;;;;;;;-0.58;60.32;100525.23;105946;1277;138109;-73
2022/03/22 05:53:01;;;;;;;63.30;25.50;;;;;;;-0.52;60.89;100526.77;105976;1278;22717;-73
2022/03/22 05:55:27;;;;;;;67.10;28.80;;;;;;;-0.45;60.84;100525.52;106003;1279;25365;-73
2022/03/22 05:57:54;;;;;;;65.90;27.90;;;;;;;-0.35;60.61;100525.92;105846;1278;137568;-73
2022/03/22 06:00:36;;;;;;;55.60;25.10;;;;;;;-0.22;60.55;100527.73;105950;1277;22608;-73
2022/03/22 06:03:03;;;;;;;58.30;27.50;;;;;;;-0.10;60.56;100531.09;105959;1277;137517;-73
2022/03/22 06:05:30;;;;;;;60.60;29.90;;;;;;;0.02;60.41;100527.39;106215;1277;26587;-73
2022/03/22 06:08:11;;;;;;;61.50;25.70;;;;;;;0.20;59.79;100532.02;105999;1277;25490;-73
2022/03/22 06:10:38;;;;;;;62.00;25.30;;;;;;;0.37;59.39;100530.27;106038;1277;137410;-74
2022/03/22 06:13:05;;;;;;;60.50;26.40;;;;;;;0.52;59.20;100535.64;105945;1279;22738;-74
2022/03/22 06:15:32;;;;;;;58.10;28.30;;;;;;;0.66;59.17;100534.83;105760;1277;137437;-73
2022/03/22 06:18:01;;;;;;;58.90;26.30;;;;;;;0.82;58.67;100540.80;106221;1277;22572;-73
2022/03/22 06:20:33;;;;;;;55.50;26.90;;;;;;;0.99;58.32;100542.21;105833;1277;137607;-73
2022/03/22 06:23:02;;;;;;;48.30;23.20;;;;;;;1.16;57.59;100543.27;106101;1277;22703;-73
2022/03/22 06:25:29;;;;;;;56.30;25.40;;;;;;;1.31;57.26;100545.16;106084;1277;24160;-73
2022/03/22 06:27:56;;;;;;;62.90;29.70;;;;;;;1.45;57.17;100544.63;106068;1277;137357;-73
2022/03/22 06:30:24;;;;;;;61.30;28.60;;;;;;;1.60;56.61;100542.44;106425;1277;23219;-73
2022/03/22 06:33:07;;;;;;;55.10;28.10;;;;;;;1.73;56.14;100546.80;105911;1277;137954;-73
2022/03/22 06:35:34;;;;;;;49.50;24.90;;;;;;;1.87;55.77;100550.59;105799;1277;22590;-73
2022/03/22 06:38:02;;;;;;;54.60;28.60;;;;;;;2.01;55.07;100552.44;105958;1280;24405;-72
2022/03/22 06:40:33;;;;;;;58.90;26.80;;;;;;;2.12;54.91;100545.50;105592;1280;137739;-73
2022/03/22 06:43:02;;;;;;;58.40;29.40;;;;;;;2.24;54.66;100545.52;105862;1280;25348;-73
2022/03/22 06:45:29;;;;;;;55.60;26.20;;;;;;;2.34;54.38;100543.33;105747;1278;137973;-72
2022/03/22 06:47:56;;;;;;;63.50;27.80;;;;;;;2.45;54.38;100543.79;105720;1280;23551;-72
2022/03/22 06:50:24;;;;;;;61.00;27.90;;;;;;;2.56;53.75;100544.73;105648;1280;137441;-72
2022/03/22 06:52:52;;;;;;;54.00;25.70;;;;;;;2.67;53.32;100542.88;105745;1281;22557;-72
2022/03/22 06:55:22;;;;;;;53.00;25.80;;;;;;;2.76;53.25;100541.08;105883;1279;22564;-72
2022/03/22 06:58:05;;;;;;;53.20;25.90;;;;;;;2.87;52.94;100540.80;105739;1278;137521;-72
2022/03/22 07:01:05;;;;;;;57.90;25.20;;;;;;;2.96;52.47;100542.62;105687;1279;22793;-72
2022/03/22 07:03:36;;;;;;;60.00;28.30;;;;;;;3.06;52.23;100543.69;105909;1280;138153;-72
2022/03/22 07:06:27;;;;;;;53.20;26.00;;;;;;;3.17;51.95;100544.75;102673;1313;545072;-72
2022/03/22 07:08:55;;;;;;;53.80;24.70;;;;;;;3.23;51.74;100547.27;104824;1287;137774;-74
2022/03/22 07:14:11;;;;;;;50.20;23.30;;;;;;;3.40;51.20;100546.53;104715;1290;22718;-72
2022/03/22 07:16:40;;;;;;;52.20;24.70;;;;;;;3.49;50.99;100546.04;104953;1290;138263;-72
2022/03/22 07:19:08;;;;;;;50.10;23.80;;;;;;;3.58;50.96;100548.05;104524;1289;318840;-72
2022/03/22 07:21:35;;;;;;;46.10;23.20;;;;;;;3.68;50.75;100545.32;105045;1289;136809;-72
2022/03/22 07:24:03;;;;;;;43.90;23.10;;;;;;;3.79;50.68;100551.25;105144;1287;25543;-72
2022/03/22 07:26:36;;;;;;;46.80;23.80;;;;;;;3.89;50.66;100549.05;105335;1287;138250;-72
2022/03/22 07:29:05;;;;;;;50.90;24.20;;;;;;;3.99;50.32;100550.55;105059;1289;26038;-72
2022/03/22 07:31:46;;;;;;;49.60;24.20;;;;;;;4.11;49.86;100558.38;105217;1289;22623;-72
2022/03/22 07:34:17;;;;;;;45.30;22.20;;;;;;;4.20;49.67;100555.84;105033;1289;137729;-73
2022/03/22 07:36:47;;;;;;;49.40;22.70;;;;;;;4.31;49.21;100552.29;105603;1289;25473;-73
2022/03/22 07:39:14;;;;;;;45.70;23.60;;;;;;;4.41;48.92;100556.50;105087;1289;137076;-73
2022/03/22 07:41:55;;;;;;;46.60;21.80;;;;;;;4.52;48.88;100555.70;105394;1289;25418;-73
2022/03/22 07:44:24;;;;;;;46.70;20.90;;;;;;;4.64;48.34;100553.29;105317;1287;137647;-73
2022/03/22 07:47:02;;;;;;;41.80;21.40;;;;;;;4.79;47.72;100553.38;105035;1289;23994;-73
2022/03/22 07:55:03;;;;;;;42.50;21.00;;;;;;;5.23;46.65;100553.10;105354;1289;25471;-73
2022/03/22 07:57:31;;;;;;;40.90;20.80;;;;;;;5.34;46.31;100555.50;105350;1287;151833;-73
2022/03/22 08:00:14;;;;;;;44.50;22.30;;;;;;;5.46;45.94;100555.73;105398;1287;22560;-73
2022/03/22 08:02:56;;;;;;;48.30;22.60;;;;;;;5.57;45.94;100556.17;104846;1287;137167;-73
2022/03/22 08:05:38;;;;;;;39.00;20.80;;;;;;;5.68;45.61;100552.15;104967;1289;22546;-74
2022/03/22 08:08:06;;;;;;;43.80;22.50;;;;;;;5.79;45.50;100552.27;105209;1287;22570;-73
2022/03/22 08:10:47;;;;;;;40.10;21.20;;;;;;;5.90;45.30;100557.66;104945;1289;136754;-72
2022/03/22 08:13:15;;;;;;;44.00;23.40;;;;;;;5.99;45.05;100556.16;105061;1288;25214;-72
2022/03/22 08:15:56;;;;;;;46.30;22.50;;;;;;;6.10;44.75;100553.27;104873;1287;136941;-72
2022/03/22 08:18:24;;;;;;;42.80;22.30;;;;;;;6.18;44.78;100551.23;104989;1289;25233;-72
2022/03/22 08:20:52;;;;;;;45.40;23.20;;;;;;;6.28;44.73;100548.00;104993;1288;137423;-74
2022/03/22 08:23:19;;;;;;;41.80;21.40;;;;;;;6.38;44.43;100544.58;104975;1289;24291;-73
2022/03/22 08:26:01;;;;;;;45.50;21.30;;;;;;;6.52;43.91;100546.50;104956;1289;24372;-72
2022/03/22 08:28:46;;;;;;;41.70;21.10;;;;;;;6.65;43.63;100547.09;104918;1290;136762;-72
2022/03/22 08:31:38;;;;;;;38.70;21.60;;;;;;;6.79;43.24;100544.89;105020;1289;22541;-72
2022/03/22 08:34:11;;;;;;;43.60;23.70;;;;;;;6.93;43.24;100538.56;104944;1290;136973;-72
2022/03/22 08:36:39;;;;;;;42.50;22.10;;;;;;;7.07;43.18;100540.65;105120;1287;22566;-72
2022/03/22 08:39:06;;;;;;;47.20;22.60;;;;;;;7.19;43.06;100541.69;105029;1290;137681;-72
2022/03/22 08:41:34;;;;;;;44.40;22.20;;;;;;;7.33;43.10;100540.89;105028;1289;22637;-72
2022/03/22 08:44:16;;;;;;;42.30;23.20;;;;;;;7.48;42.79;100538.42;104976;1289;22566;-72
2022/03/22 08:46:43;;;;;;;39.00;21.20;;;;;;;7.62;42.32;100533.76;104984;1290;136767;-72
2022/03/22 08:49:10;;;;;;;37.60;21.60;;;;;;;7.74;41.73;100533.48;105460;1286;22560;-72
2022/03/22 08:51:38;;;;;;;42.10;22.30;;;;;;;7.87;41.74;100531.85;105253;1286;137961;-74
2022/03/22 08:54:06;;;;;;;47.20;24.00;;;;;;;8.01;41.76;100533.71;105374;1286;22564;-72
2022/03/22 08:56:33;;;;;;;43.80;21.80;;;;;;;8.13;41.42;100533.30;105427;1287;137222;-72
2022/03/22 08:59:14;;;;;;;42.00;22.70;;;;;;;8.26;41.19;100534.93;105493;1286;22561;-73
2022/03/22 09:01:55;;;;;;;39.10;21.90;;;;;;;8.39;41.15;100528.58;105339;1286;30263;-73
2022/03/22 09:07:08;;;;;;;41.10;21.80;;;;;;;8.67;40.88;100525.66;105604;1286;25379;-73
2022/03/22 09:09:36;;;;;;;38.00;20.80;;;;;;;8.80;40.66;100519.74;105319;1286;136904;-73
2022/03/22 09:12:03;;;;;;;46.40;23.50;;;;;;;8.92;40.32;100515.40;105135;1286;25335;-73
2022/03/22 09:14:31;;;;;;;46.80;23.80;;;;;;;9.06;40.48;100514.20;104838;1286;137270;-73
2022/03/22 09:16:58;;;;;;;39.70;22.40;;;;;;;9.18;40.12;100511.26;105111;1285;25259;-73
2022/03/22 09:19:25;;;;;;;45.80;24.00;;;;;;;9.32;39.87;100508.46;105308;1286;22640;-73
2022/03/22 09:22:07;;;;;;;41.50;22.60;;;;;;;9.45;39.68;100508.35;105420;1286;137579;-73
2022/03/22 09:24:35;;;;;;;42.00;23.00;;;;;;;9.57;39.21;100505.88;106129;1286;25518;-73
2022/03/22 09:27:03;;;;;;;38.10;20.20;;;;;;;9.67;38.94;100504.60;105178;1286;138421;-73
2022/03/22 09:29:30;;;;;;;36.50;20.70;;;;;;;9.77;38.55;100500.27;105826;1286;25272;-73
2022/03/22 09:32:12;;;;;;;36.50;19.90;;;;;;;9.88;38.77;100499.27;105700;1285;23392;-73
2022/03/22 09:34:53;;;;;;;46.80;21.90;;;;;;;10.03;38.98;100497.20;105451;1285;137142;-73
2022/03/22 09:37:20;;;;;;;37.30;21.90;;;;;;;10.20;38.64;100493.19;105771;1286;25387;-73
2022/03/22 09:40:02;;;;;;;36.60;20.70;;;;;;;10.35;37.86;100488.21;104995;1286;139037;-72
2022/03/22 09:42:30;;;;;;;38.80;20.90;;;;;;;10.48;37.80;100487.66;105586;1285;22684;-72
2022/03/22 09:45:00;;;;;;;34.80;19.80;;;;;;;10.62;37.72;100484.27;105162;1286;138052;-72
2022/03/22 09:47:28;;;;;;;36.40;20.20;;;;;;;10.75;37.64;100479.35;105551;1286;22697;-72
2022/03/22 09:50:10;;;;;;;38.20;20.60;;;;;;;10.89;37.74;100477.95;105702;1286;22687;-72
2022/03/22 09:52:52;;;;;;;37.30;20.70;;;;;;;11.02;37.22;100475.17;104941;1286;137322;-73
2022/03/22 09:55:20;;;;;;;37.70;21.60;;;;;;;11.13;37.01;100478.09;105761;1285;24278;-72
2022/03/22 09:57:48;;;;;;;46.60;25.50;;;;;;;11.24;36.78;100473.40;105351;1285;138412;-73
2022/03/22 10:00:15;;;;;;;40.40;22.10;;;;;;;11.36;36.82;100472.14;105912;1285;23437;-73
2022/03/22 10:02:43;;;;;;;37.50;21.50;;;;;;;11.47;35.89;100469.38;106223;1285;137912;-72
2022/03/22 10:05:29;;;;;;;38.70;21.90;;;;;;;11.55;35.78;100470.30;105662;1286;24233;-73
2022/03/22 10:08:10;;;;;;;39.50;22.30;;;;;;;11.66;35.68;100467.08;105299;1286;25412;-72
2022/03/22 10:10:58;;;;;;;42.30;22.80;;;;;;;11.71;35.40;100464.47;105513;1286;137553;-73
2022/03/22 10:14:00;;;;;;;42.00;23.90;;;;;;;11.84;35.98;100462.87;105513;1285;30278;-73
2022/03/22 10:16:28;;;;;;;43.30;24.20;;;;;;;11.98;35.27;100460.61;105137;1287;137890;-73
2022/03/22 10:18:55;;;;;;;47.20;24.70;;;;;;;12.07;35.08;100459.80;105395;1286;24509;-74
2022/03/22 10:21:46;;;;;;;44.90;25.80;;;;;;;12.15;34.82;100458.85;105720;1286;137748;-73
2022/03/22 10:24:18;;;;;;;41.10;24.90;;;;;;;12.22;34.32;100457.07;105762;1285;31490;-73
2022/03/22 10:26:47;;;;;;;42.80;23.00;;;;;;;12.30;34.75;100455.75;105417;1286;138282;-74
2022/03/22 10:29:15;;;;;;;41.20;23.10;;;;;;;12.42;34.64;100454.71;105487;1286;22547;-72
2022/03/22 10:32:03;;;;;;;39.70;23.60;;;;;;;12.56;34.79;100456.66;105279;1286;22695;-74
2022/03/22 10:34:44;;;;;;;40.90;23.90;;;;;;;12.71;34.43;100455.49;105089;1286;137938;-74
2022/03/22 10:37:12;;;;;;;39.70;22.60;;;;;;;12.82;33.86;100447.63;105378;1286;25245;-74
2022/03/22 10:40:21;;;;;;;42.70;25.00;;;;;;;12.95;33.66;100450.11;105073;1286;137814;-72
2022/03/22 10:49:13;;;;;;;47.40;24.90;;;;;;;13.33;33.15;100444.27;102750;1312;545168;-72
2022/03/22 10:51:48;;;;;;;40.00;23.70;;;;;;;13.40;32.40;100442.19;104511;1289;137636;-74
2022/03/22 10:54:29;;;;;;;44.70;25.80;;;;;;;13.50;32.44;100442.38;104645;1290;22648;-75
2022/03/22 10:57:13;;;;;;;41.50;25.30;;;;;;;13.58;32.49;100439.95;104343;1291;138648;-74
2022/03/22 10:59:41;;;;;;;41.80;25.70;;;;;;;13.61;32.25;100436.69;104544;1291;25388;-73
2022/03/22 11:02:24;;;;;;;38.80;24.20;;;;;;;13.69;32.08;100437.29;104183;1290;282738;-74
2022/03/22 11:05:07;;;;;;;44.10;23.40;;;;;;;13.78;31.96;100432.04;104698;1289;137378;-72
2022/03/22 11:07:35;;;;;;;;;;;;;;;13.86;31.95;100425.38;104871;1289;22711;-74
2022/03/22 11:10:03;;;;;;;36.80;21.90;;;;;;;13.94;31.38;100427.36;104815;1289;123208;-70
2022/03/22 11:12:33;;;;;;;39.90;23.00;;;;;;;13.99;31.35;100425.52;104748;1287;24281;-71
2022/03/22 11:15:02;;;;;;;34.80;21.30;;;;;;;14.09;31.28;100411.34;104947;1289;138033;-73
2022/03/22 11:17:35;;;;;;;44.00;24.30;;;;;;;14.18;31.07;100411.68;105210;1289;24321;-72
2022/03/22 11:20:11;;;;;;;37.60;23.10;;;;;;;14.27;30.69;100405.71;105103;1289;22848;-73
2022/03/22 11:22:45;;;;;;;36.30;22.00;;;;;;;14.33;30.80;100401.75;105056;1289;137401;-71
2022/03/22 11:25:18;;;;;;;35.30;21.70;;;;;;;14.44;30.96;100396.60;105058;1289;22708;-71
2022/03/22 11:28:16;;;;;;;34.30;20.90;;;;;;;14.55;30.96;100389.31;104601;1289;137644;-71
2022/03/22 11:30:45;;;;;;;39.50;21.50;;;;;;;14.67;30.62;100386.95;104917;1287;24435;-72
2022/03/22 11:36:18;;;;;;;31.60;19.70;;;;;;;14.92;30.70;100380.78;105158;1287;25257;-71
2022/03/22 11:38:54;;;;;;;32.80;20.50;;;;;;;15.08;30.73;100381.84;104721;1290;23366;-72
2022/03/22 11:44:36;;;;;;;36.40;20.10;;;;;;;15.32;30.32;100375.11;105032;1289;22579;-71
2022/03/22 11:47:15;;;;;;;31.10;19.40;;;;;;;15.43;30.39;100368.77;104881;1289;137609;-73
2022/03/22 11:50:09;;;;;;;33.90;19.30;;;;;;;15.54;30.11;100369.65;104912;1287;22573;-71
2022/03/22 11:53:01;;;;;;;32.80;20.20;;;;;;;15.66;29.33;100367.39;104919;1288;137667;-70
2022/03/22 11:55:42;;;;;;;31.00;19.30;;;;;;;15.75;29.31;100364.80;105023;1287;25394;-71
2022/03/22 11:58:09;;;;;;;35.10;20.00;;;;;;;15.85;29.32;100358.79;104923;1287;137279;-71
2022/03/22 12:00:56;;;;;;;29.00;19.10;;;;;;;15.97;29.54;100354.48;105245;1290;23918;-71
2022/03/22 12:03:31;;;;;;;33.00;20.40;;;;;;;16.07;28.75;100349.04;105036;1290;137777;-72
2022/03/22 12:06:16;;;;;;;35.00;21.30;;;;;;;16.14;28.34;100347.46;104712;1290;22565;-71